Observation data for Plains on 07/03/2020      Previous  Date  Next       Current Mesonet Observations  Soil Data  Daily Summary Page  Observations in Plain Language
KPPS 030500Z 11007KT 26/15 A3007 RMK A01 T02570153  RH  055%=      5-min Rain = 0
KPPS 030505Z 12007KT 25/16 A3007 RMK A01 T02540155  RH  057%=      5-min Rain = 0
KPPS 030510Z 13008KT 25/16 A3007 RMK A01 T02530157  RH  058%=      5-min Rain = 0
KPPS 030515Z 12008KT 26/16 A3007 RMK A01 T02550159  RH  058%=      5-min Rain = 0
KPPS 030520Z 12008KT 26/16 A3008 RMK A01 T02550159  RH  058%=      5-min Rain = 0
KPPS 030525Z 12008KT 26/16 A3008 RMK A01 T02550159  RH  058%=      5-min Rain = 0
KPPS 030530Z 13008KT 26/16 A3008 RMK A01 T02550158  RH  058%=      5-min Rain = 0
KPPS 030535Z 13008KT 25/16 A3008 RMK A01 T02540157  RH  058%=      5-min Rain = 0
KPPS 030540Z 13009KT 25/16 A3008 RMK A01 T02540157  RH  058%=      5-min Rain = 0
KPPS 030545Z 13009KT 25/16 A3008 RMK A01 T02530157  RH  058%=      5-min Rain = 0
KPPS 030550Z 13009KT 25/16 A3009 RMK A01 T02530156  RH  058%=      5-min Rain = 0
KPPS 030555Z 13008KT 25/16 A3009 RMK A01 T02510155  RH  058%=      5-min Rain = 0
KPPS 030600Z 14007KT 25/15 A3009 RMK A01 T02500154  RH  058%=      5-min Rain = 0
KPPS 030605Z 13007KT 25/15 A3009 RMK A01 T02490152  RH  057%=      5-min Rain = 0
KPPS 030610Z 13007KT 25/15 A3009 RMK A01 T02490151  RH  057%=      5-min Rain = 0
KPPS 030615Z 13007KT 25/15 A3009 RMK A01 T02490149  RH  056%=      5-min Rain = 0
KPPS 030620Z 13008KT 25/15 A3009 RMK A01 T02490147  RH  055%=      5-min Rain = 0
KPPS 030625Z 13008KT 25/14 A3009 RMK A01 T02490144  RH  054%=      5-min Rain = 0
KPPS 030630Z 13008KT 25/14 A3009 RMK A01 T02490141  RH  053%=      5-min Rain = 0
KPPS 030635Z 12008KT 25/14 A3009 RMK A01 T02480141  RH  054%=      5-min Rain = 0
KPPS 030640Z 12008KT 25/14 A3009 RMK A01 T02460141  RH  054%=      5-min Rain = 0
KPPS 030645Z 13009KT 25/14 A3009 RMK A01 T02460140  RH  054%=      5-min Rain = 0
KPPS 030650Z 13009KT 25/14 A3009 RMK A01 T02450139  RH  054%=      5-min Rain = 0
KPPS 030655Z 13009KT 24/14 A3009 RMK A01 T02440138  RH  054%=      5-min Rain = 0
KPPS 030700Z 14008KT 24/14 A3009 RMK A01 T02430138  RH  054%=      5-min Rain = 0
KPPS 030705Z 15007KT 24/14 A3009 RMK A01 T02410137  RH  054%=      5-min Rain = 0
KPPS 030710Z 14008KT 24/14 A3009 RMK A01 T02380136  RH  055%=      5-min Rain = 0
KPPS 030715Z 14008KT 24/14 A3009 RMK A01 T02360135  RH  055%=      5-min Rain = 0
KPPS 030720Z 13007KT 24/13 A3009 RMK A01 T02350134  RH  055%=      5-min Rain = 0
KPPS 030725Z 13006KT 23/13 A3008 RMK A01 T02340134  RH  056%=      5-min Rain = 0
KPPS 030730Z 14006KT 23/13 A3008 RMK A01 T02320133  RH  056%=      5-min Rain = 0
KPPS 030735Z 14005KT 23/13 A3008 RMK A01 T02310133  RH  056%=      5-min Rain = 0
KPPS 030740Z 14004KT 23/13 A3008 RMK A01 T02310133  RH  056%=      5-min Rain = 0
KPPS 030745Z 16004KT 23/13 A3008 RMK A01 T02310132  RH  056%=      5-min Rain = 0
KPPS 030750Z 18003KT 23/13 A3008 RMK A01 T02310133  RH  056%=      5-min Rain = 0
KPPS 030755Z 18002KT 23/13 A3008 RMK A01 T02320133  RH  056%=      5-min Rain = 0
KPPS 030800Z 26001KT 23/13 A3009 RMK A01 T02320133  RH  056%=      5-min Rain = 0
KPPS 030805Z 30003KT 23/13 A3009 RMK A01 T02270130  RH  057%=      5-min Rain = 0
KPPS 030810Z 34003KT 22/13 A3009 RMK A01 T02210131  RH  059%=      5-min Rain = 0
KPPS 030815Z 36004KT 22/13 A3009 RMK A01 T02240132  RH  058%=      5-min Rain = 0
KPPS 030820Z 00005KT 23/13 A3009 RMK A01 T02250132  RH  058%=      5-min Rain = 0
KPPS 030825Z 01003KT 23/13 A3009 RMK A01 T02250132  RH  058%=      5-min Rain = 0
KPPS 030830Z 02002KT 23/13 A3008 RMK A01 T02250133  RH  058%=      5-min Rain = 0
KPPS 030835Z 01001KT 22/13 A3008 RMK A01 T02240132  RH  058%=      5-min Rain = 0
KPPS 030840Z 05002KT 22/13 A3008 RMK A01 T02210131  RH  059%=      5-min Rain = 0
KPPS 030845Z 03003KT 22/13 A3008 RMK A01 T02160131  RH  061%=      5-min Rain = 0
KPPS 030850Z 02004KT 22/13 A3008 RMK A01 T02180133  RH  061%=      5-min Rain = 0
KPPS 030855Z 02004KT 22/13 A3008 RMK A01 T02220134  RH  060%=      5-min Rain = 0
KPPS 030900Z 00003KT 22/13 A3008 RMK A01 T02200134  RH  060%=      5-min Rain = 0
KPPS 030905Z 35004KT 22/13 A3007 RMK A01 T02160133  RH  062%=      5-min Rain = 0
KPPS 030910Z 35004KT 21/13 A3007 RMK A01 T02140133  RH  063%=      5-min Rain = 0
KPPS 030915Z 34005KT 21/13 A3007 RMK A01 T02130133  RH  063%=      5-min Rain = 0
KPPS 030920Z 34005KT 21/13 A3007 RMK A01 T02120132  RH  063%=      5-min Rain = 0
KPPS 030925Z 34005KT 21/13 A3007 RMK A01 T02100131  RH  063%=      5-min Rain = 0
KPPS 030930Z 33006KT 21/13 A3007 RMK A01 T02100132  RH  063%=      5-min Rain = 0
KPPS 030935Z 34007KT 21/13 A3008 RMK A01 T02080131  RH  064%=      5-min Rain = 0
KPPS 030940Z 35007KT 21/13 A3008 RMK A01 T02060132  RH  065%=      5-min Rain = 0
KPPS 030945Z 36007KT 21/13 A3008 RMK A01 T02090134  RH  065%=      5-min Rain = 0
KPPS 030950Z 01007KT 21/14 A3008 RMK A01 T02110135  RH  065%=      5-min Rain = 0
KPPS 030955Z 01007KT 21/14 A3008 RMK A01 T02130137  RH  064%=      5-min Rain = 0
KPPS 031000Z 01007KT 22/14 A3009 RMK A01 T02150138  RH  064%=      5-min Rain = 0
KPPS 031005Z 00006KT 22/14 A3009 RMK A01 T02150138  RH  064%=      5-min Rain = 0
KPPS 031010Z 35007KT 21/14 A3009 RMK A01 T02110137  RH  066%=      5-min Rain = 0
KPPS 031015Z 34007KT 21/14 A3009 RMK A01 T02070137  RH  067%=      5-min Rain = 0
KPPS 031020Z 34007KT 21/14 A3009 RMK A01 T02090138  RH  067%=      5-min Rain = 0
KPPS 031025Z 34007KT 21/14 A3009 RMK A01 T02110140  RH  066%=      5-min Rain = 0
KPPS 031030Z 33006KT 21/14 A3009 RMK A01 T02110140  RH  067%=      5-min Rain = 0
KPPS 031035Z 34006KT 21/14 A301 RMK A01 T02110141  RH  067%=      5-min Rain = 0
KPPS 031040Z 35006KT 21/14 A301 RMK A01 T02130142  RH  067%=      5-min Rain = 0
KPPS 031045Z 00006KT 22/14 A301 RMK A01 T02160144  RH  066%=      5-min Rain = 0
KPPS 031050Z 00005KT 22/15 A301 RMK A01 T02180145  RH  066%=      5-min Rain = 0
KPPS 031055Z 35005KT 22/14 A3009 RMK A01 T02160143  RH  066%=      5-min Rain = 0
KPPS 031100Z 00006KT 21/14 A301 RMK A01 T02140144  RH  067%=      5-min Rain = 0
KPPS 031105Z 01006KT 22/15 A301 RMK A01 T02150145  RH  067%=      5-min Rain = 0
KPPS 031110Z 01006KT 22/15 A301 RMK A01 T02160145  RH  067%=      5-min Rain = 0
KPPS 031115Z 01007KT 22/15 A301 RMK A01 T02170146  RH  067%=      5-min Rain = 0
KPPS 031120Z 36006KT 22/15 A301 RMK A01 T02160146  RH  067%=      5-min Rain = 0
KPPS 031125Z 36005KT 22/15 A3009 RMK A01 T02150146  RH  068%=      5-min Rain = 0
KPPS 031130Z 00003KT 21/15 A3009 RMK A01 T02140146  RH  068%=      5-min Rain = 0
KPPS 031135Z 03001KT 22/15 A3009 RMK A01 T02160145  RH  067%=      5-min Rain = 0
KPPS 031140Z 04003KT 22/15 A301 RMK A01 T02150146  RH  068%=      5-min Rain = 0
KPPS 031145Z 03004KT 21/14 A301 RMK A01 T02110144  RH  069%=      5-min Rain = 0
KPPS 031150Z 05004KT 21/14 A301 RMK A01 T02120144  RH  068%=      5-min Rain = 0
KPPS 031155Z 06005KT 21/14 A301 RMK A01 T02100144  RH  069%=      5-min Rain = 0
KPPS 031200Z 07004KT 21/14 A301 RMK A01 T02100144  RH  069%=      5-min Rain = 0
KPPS 031205Z 11002KT 21/15 A3009 RMK A01 T02100145  RH  069%=      5-min Rain = 0
KPPS 031210Z 15003KT 21/14 A3009 RMK A01 T02120144  RH  068%=      5-min Rain = 0
KPPS 031215Z 15004KT 21/15 A301 RMK A01 T02140145  RH  067%=      5-min Rain = 0
KPPS 031220Z 15004KT 22/14 A3009 RMK A01 T02150144  RH  067%=      5-min Rain = 0
KPPS 031225Z 17004KT 22/15 A3009 RMK A01 T02160145  RH  067%=      5-min Rain = 0
KPPS 031230Z 17004KT 22/15 A3009 RMK A01 T02190145  RH  066%=      5-min Rain = 0
KPPS 031235Z 15004KT 22/14 A301 RMK A01 T02180144  RH  065%=      5-min Rain = 0
KPPS 031240Z 14004KT 21/14 A301 RMK A01 T02140143  RH  067%=      5-min Rain = 0
KPPS 031245Z 15005KT 21/14 A301 RMK A01 T02140144  RH  067%=      5-min Rain = 0
KPPS 031250Z 15006KT 22/15 A301 RMK A01 T02180145  RH  066%=      5-min Rain = 0
KPPS 031255Z 15006KT 22/15 A3009 RMK A01 T02200146  RH  065%=      5-min Rain = 0
KPPS 031300Z 14006KT 22/15 A3009 RMK A01 T02210146  RH  065%=      5-min Rain = 0
KPPS 031305Z 14006KT 22/15 A3009 RMK A01 T02210146  RH  065%=      5-min Rain = 0
KPPS 031310Z 13007KT 22/15 A3009 RMK A01 T02230146  RH  064%=      5-min Rain = 0
KPPS 031315Z 13007KT 23/15 A301 RMK A01 T02290147  RH  062%=      5-min Rain = 0
KPPS 031320Z 13007KT 23/15 A301 RMK A01 T02340148  RH  061%=      5-min Rain = 0
KPPS 031325Z 13007KT 24/15 A301 RMK A01 T02410149  RH  059%=      5-min Rain = 0
KPPS 031330Z 13008KT 25/15 A301 RMK A01 T02450149  RH  057%=      5-min Rain = 0
KPPS 031335Z 13009KT 25/15 A301 RMK A01 T02480148  RH  056%=      5-min Rain = 0
KPPS 031340Z 13010KT 25/15 A301 RMK A01 T02510148  RH  055%=      5-min Rain = 0
KPPS 031345Z 14009KT 25/15 A301 RMK A01 T02540147  RH  054%=      5-min Rain = 0
KPPS 031350Z 14011KT 26/14 A301 RMK A01 T02570144  RH  052%=      5-min Rain = 0
KPPS 031355Z 13011KT 26/14 A301 RMK A01 T02590144  RH  051%=      5-min Rain = 0
KPPS 031400Z 13013KT 26/14 A3011 RMK A01 T02580144  RH  051%=      5-min Rain = 0
KPPS 031405Z 13013KT 26/14 A3011 RMK A01 T02550144  RH  053%=      5-min Rain = 0
KPPS 031410Z 13012KT 26/15 A3011 RMK A01 T02590146  RH  052%=      5-min Rain = 0
KPPS 031415Z 14011KT 26/15 A3011 RMK A01 T02640148  RH  051%=      5-min Rain = 0
KPPS 031420Z 14012KT 27/15 A3011 RMK A01 T02670149  RH  051%=      5-min Rain = 0
KPPS 031425Z 14011KT 27/15 A3012 RMK A01 T02670150  RH  051%=      5-min Rain = 0
KPPS 031430Z 14013KT 27/15 A3012 RMK A01 T02700152  RH  051%=      5-min Rain = 0
KPPS 031435Z 14012KT 27/15 A3012 RMK A01 T02700152  RH  051%=      5-min Rain = 0
KPPS 031440Z 16010KT 27/15 A3012 RMK A01 T02720153  RH  050%=      5-min Rain = 0
KPPS 031445Z 15011KT 27/15 A3012 RMK A01 T02740154  RH  050%=      5-min Rain = 0
KPPS 031450Z 16009KT 27/15 A3012 RMK A01 T02730154  RH  050%=      5-min Rain = 0
KPPS 031455Z 15011KT 28/16 A3012 RMK A01 T02770155  RH  050%=      5-min Rain = 0
KPPS 031500Z 14010KT 28/16 A3012 RMK A01 T02770156  RH  050%=      5-min Rain = 0
KPPS 031505Z 13009G15KT 28/16 A3012 RMK A01 T02790157  RH  050%=      5-min Rain = 0
KPPS 031510Z 16009KT 28/16 A3012 RMK A01 T02790158  RH  050%=      5-min Rain = 0
KPPS 031515Z 15010KT 28/16 A3012 RMK A01 T02840158  RH  049%=      5-min Rain = 0
KPPS 031520Z 16009KT 29/16 A3012 RMK A01 T02850157  RH  048%=      5-min Rain = 0
KPPS 031525Z 16010KT 28/16 A3012 RMK A01 T02840158  RH  049%=      5-min Rain = 0
KPPS 031530Z 15010KT 28/16 A3012 RMK A01 T02830158  RH  049%=      5-min Rain = 0
KPPS 031535Z 15008KT 29/16 A3012 RMK A01 T02850158  RH  048%=      5-min Rain = 0
KPPS 031540Z 14008KT 29/16 A3012 RMK A01 T02860158  RH  048%=      5-min Rain = 0
KPPS 031545Z 15009KT 29/16 A3013 RMK A01 T02870157  RH  047%=      5-min Rain = 0
KPPS 031550Z 17007KT 29/16 A3012 RMK A01 T02890156  RH  046%=      5-min Rain = 0
KPPS 031555Z 15008KT 29/16 A3012 RMK A01 T02930157  RH  046%=      5-min Rain = 0
KPPS 031600Z 15009KT 30/16 A3012 RMK A01 T02980158  RH  045%=      5-min Rain = 0
KPPS 031605Z 14010KT 30/16 A3012 RMK A01 T02990155  RH  044%=      5-min Rain = 0
KPPS 031610Z 14009KT 30/15 A3012 RMK A01 T02980152  RH  043%=      5-min Rain = 0
KPPS 031615Z 15008G14KT 30/15 A3012 RMK A01 T02990154  RH  043%=      5-min Rain = 0
KPPS 031620Z 13009KT 30/15 A3012 RMK A01 T03000150  RH  042%=      5-min Rain = 0
KPPS 031625Z 13008G13KT 30/15 A3012 RMK A01 T03020148  RH  041%=      5-min Rain = 0
KPPS 031630Z 15010G15KT 31/15 A3012 RMK A01 T03060147  RH  040%=      5-min Rain = 0
KPPS 031635Z 15009G15KT 31/14 A3012 RMK A01 T03050142  RH  039%=      5-min Rain = 0
KPPS 031640Z 15010KT 31/15 A3012 RMK A01 T03090150  RH  040%=      5-min Rain = 0
KPPS 031645Z 15008KT 31/15 A3012 RMK A01 T03110149  RH  039%=      5-min Rain = 0
KPPS 031650Z 12009KT 31/14 A3012 RMK A01 T03140142  RH  037%=      5-min Rain = 0
KPPS 031655Z 12009KT 31/15 A3012 RMK A01 T03110147  RH  039%=      5-min Rain = 0
KPPS 031700Z 13009KT 32/14 A3012 RMK A01 T03160142  RH  036%=      5-min Rain = 0
KPPS 031705Z 13008G13KT 32/14 A3013 RMK A01 T03150140  RH  036%=      5-min Rain = 0
KPPS 031710Z 12006G11KT 31/14 A3012 RMK A01 T03130139  RH  036%=      5-min Rain = 0
KPPS 031715Z 16009KT 31/15 A3012 RMK A01 T03140145  RH  038%=      5-min Rain = 0
KPPS 031720Z 14008KT 32/15 A3012 RMK A01 T03200146  RH  037%=      5-min Rain = 0
KPPS 031725Z 14006G11KT 32/15 A3012 RMK A01 T03200150  RH  037%=      5-min Rain = 0
KPPS 031730Z 11011G16KT 32/14 A3012 RMK A01 T03240142  RH  035%=      5-min Rain = 0
KPPS 031735Z 12011KT 32/14 A3012 RMK A01 T03240137  RH  033%=      5-min Rain = 0
KPPS 031740Z 14008G13KT 33/15 A3012 RMK A01 T03260145  RH  035%=      5-min Rain = 0
KPPS 031745Z 13011KT 32/14 A3012 RMK A01 T03240141  RH  034%=      5-min Rain = 0
KPPS 031750Z 11013G19KT 33/14 A3012 RMK A01 T03290139  RH  033%=      5-min Rain = 0
KPPS 031755Z 12010G19KT 33/14 A3012 RMK A01 T03250139  RH  034%=      5-min Rain = 0
KPPS 031800Z 12010G17KT 33/13 A3012 RMK A01 T03260133  RH  032%=      5-min Rain = 0
KPPS 031805Z 14010G17KT 33/14 A3012 RMK A01 T03290139  RH  033%=      5-min Rain = 0
KPPS 031810Z 14009G16KT 33/13 A3012 RMK A01 T03270132  RH  032%=      5-min Rain = 0
KPPS 031815Z 14013G18KT 33/13 A3012 RMK A01 T03290128  RH  031%=      5-min Rain = 0
KPPS 031820Z 12008G15KT 33/13 A3011 RMK A01 T03280128  RH  031%=      5-min Rain = 0
KPPS 031825Z 13010KT 33/13 A3011 RMK A01 T03320127  RH  030%=      5-min Rain = 0
KPPS 031830Z 14010KT 33/11 A3011 RMK A01 T03340112  RH  027%=      5-min Rain = 0
KPPS 031835Z 12014G20KT 34/11 A3011 RMK A01 T03420109  RH  025%=      5-min Rain = 0
KPPS 031840Z 10010KT 33/11 A301 RMK A01 T03340113  RH  027%=      5-min Rain = 0
KPPS 031845Z 12013G22KT 34/12 A301 RMK A01 T03400118  RH  027%=      5-min Rain = 0
KPPS 031850Z 12013G20KT 34/11 A301 RMK A01 T03380110  RH  026%=      5-min Rain = 0
KPPS 031855Z 12010G18KT 34/09 A301 RMK A01 T03370090  RH  023%=      5-min Rain = 0
KPPS 031900Z 12014G21KT 34/11 A301 RMK A01 T03370108  RH  026%=      5-min Rain = 0
KPPS 031905Z 14012G20KT 34/11 A301 RMK A01 T03370110  RH  026%=      5-min Rain = 0
KPPS 031910Z 13012G18KT 34/12 A301 RMK A01 T03370120  RH  028%=      5-min Rain = 0
KPPS 031915Z 13012G19KT 34/12 A301 RMK A01 T03390121  RH  028%=      5-min Rain = 0
KPPS 031920Z 14012G18KT 34/12 A301 RMK A01 T03440119  RH  027%=      5-min Rain = 0
KPPS 031925Z 11013G18KT 34/13 A3009 RMK A01 T03390128  RH  029%=      5-min Rain = 0
KPPS 031930Z 12010G17KT 33/12 A3009 RMK A01 T03340121  RH  029%=      5-min Rain = 0
KPPS 031935Z 11012G20KT 34/13 A3009 RMK A01 T03420127  RH  028%=      5-min Rain = 0
KPPS 031940Z 13011G17KT 34/12 A3009 RMK A01 T03380122  RH  028%=      5-min Rain = 0
KPPS 031945Z 13014G20KT 34/12 A3008 RMK A01 T03440122  RH  027%=      5-min Rain = 0
KPPS 031950Z 16011KT 35/12 A3008 RMK A01 T03450124  RH  027%=      5-min Rain = 0
KPPS 031955Z 14010G19KT 34/12 A3008 RMK A01 T03400123  RH  028%=      5-min Rain = 0
KPPS 032000Z 11011G19KT 34/13 A3008 RMK A01 T03390126  RH  029%=      5-min Rain = 0
KPPS 032005Z 15009G15KT 34/13 A3007 RMK A01 T03390125  RH  028%=      5-min Rain = 0
KPPS 032010Z 15013G22KT 35/13 A3007 RMK A01 T03460129  RH  028%=      5-min Rain = 0
KPPS 032015Z 16010G16KT 35/13 A3007 RMK A01 T03450127  RH  028%=      5-min Rain = 0
KPPS 032020Z 13011G19KT 35/13 A3007 RMK A01 T03460127  RH  028%=      5-min Rain = 0
KPPS 032025Z 11015G29KT 35/13 A3007 RMK A01 T03460129  RH  028%=      5-min Rain = 0
KPPS 032030Z 13016G22KT 35/13 A3007 RMK A01 T03510127  RH  027%=      5-min Rain = 0
KPPS 032035Z 13012G17KT 35/13 A3007 RMK A01 T03490125  RH  027%=      5-min Rain = 0
KPPS 032040Z 15008G13KT 35/12 A3007 RMK A01 T03480123  RH  027%=      5-min Rain = 0
KPPS 032045Z 15009G15KT 35/12 A3007 RMK A01 T03520124  RH  026%=      5-min Rain = 0
KPPS 032050Z 13011G19KT 36/13 A3008 RMK A01 T03590125  RH  025%=      5-min Rain = 0
KPPS 032055Z 14008G13KT 35/12 A3008 RMK A01 T03480124  RH  027%=      5-min Rain = 0
KPPS 032100Z 16005KT 34/13 A3008 RMK A01 T03440125  RH  028%=      5-min Rain = 0
KPPS 032105Z 11010G16KT 35/13 A3008 RMK A01 T03490126  RH  027%=      5-min Rain = 0
KPPS 032110Z 10011G17KT 35/12 A3008 RMK A01 T03480124  RH  027%=      5-min Rain = 0
KPPS 032115Z 14010KT 35/12 A3007 RMK A01 T03500123  RH  026%=      5-min Rain = 0
KPPS 032120Z 15007KT 35/12 A3007 RMK A01 T03500122  RH  026%=      5-min Rain = 0
KPPS 032125Z 10009G14KT 35/13 A3007 RMK A01 T03510125  RH  027%=      5-min Rain = 0
KPPS 032130Z 07007KT 35/12 A3007 RMK A01 T03520122  RH  026%=      5-min Rain = 0
KPPS 032135Z 13009KT 35/13 A3007 RMK A01 T03510125  RH  027%=      5-min Rain = 0
KPPS 032140Z 14009KT 35/13 A3007 RMK A01 T03470125  RH  027%=      5-min Rain = 0
KPPS 032145Z 11010G15KT 34/13 A3007 RMK A01 T03430125  RH  028%=      5-min Rain = 0
KPPS 032150Z 11010G15KT 34/13 A3007 RMK A01 T03420126  RH  028%=      5-min Rain = 0
KPPS 032155Z 09007KT 34/12 A3006 RMK A01 T03380124  RH  028%=      5-min Rain = 0
KPPS 032200Z 08007KT 34/12 A3006 RMK A01 T03360123  RH  029%=      5-min Rain = 0
KPPS 032205Z 09007KT 34/12 A3006 RMK A01 T03400122  RH  028%=      5-min Rain = 0
KPPS 032210Z 10009KT 34/12 A3006 RMK A01 T03400121  RH  028%=      5-min Rain = 0
KPPS 032215Z 12008KT 34/12 A3005 RMK A01 T03380121  RH  028%=      5-min Rain = 0
KPPS 032220Z 12008G14KT 34/12 A3005 RMK A01 T03380121  RH  028%=      5-min Rain = 0
KPPS 032225Z 14008G14KT 34/12 A3005 RMK A01 T03390119  RH  027%=      5-min Rain = 0
KPPS 032230Z 14004KT 34/12 A3004 RMK A01 T03370119  RH  028%=      5-min Rain = 0
KPPS 032235Z 13007KT 34/12 A3004 RMK A01 T03400122  RH  028%=      5-min Rain = 0
KPPS 032240Z 13010KT 34/12 A3004 RMK A01 T03420124  RH  028%=      5-min Rain = 0
KPPS 032245Z 12010G16KT 34/12 A3004 RMK A01 T03440123  RH  027%=      5-min Rain = 0
KPPS 032250Z 13011G16KT 34/12 A3004 RMK A01 T03440122  RH  027%=      5-min Rain = 0
KPPS 032255Z 13010G15KT 35/12 A3004 RMK A01 T03460122  RH  027%=      5-min Rain = 0
KPPS 032300Z 13010KT 35/12 A3003 RMK A01 T03500121  RH  026%=      5-min Rain = 0
KPPS 032305Z 14010G17KT 35/12 A3003 RMK A01 T03540122  RH  026%=      5-min Rain = 0
KPPS 032310Z 14012G17KT 35/12 A3003 RMK A01 T03520120  RH  026%=      5-min Rain = 0
KPPS 032315Z 14011KT 35/12 A3003 RMK A01 T03530120  RH  025%=      5-min Rain = 0
KPPS 032320Z 14012G19KT 35/12 A3002 RMK A01 T03510119  RH  025%=      5-min Rain = 0
KPPS 032325Z 13012G19KT 35/12 A3003 RMK A01 T03490118  RH  026%=      5-min Rain = 0
KPPS 032330Z 16011G16KT 35/12 A3003 RMK A01 T03470117  RH  026%=      5-min Rain = 0
KPPS 032335Z 12009KT 35/12 A3002 RMK A01 T03450116  RH  026%=      5-min Rain = 0
KPPS 032340Z 14014KT 34/12 A3002 RMK A01 T03440115  RH  026%=      5-min Rain = 0
KPPS 032345Z 14011KT 34/11 A3002 RMK A01 T03380114  RH  027%=      5-min Rain = 0
KPPS 032350Z 14009KT 34/11 A3002 RMK A01 T03360114  RH  027%=      5-min Rain = 0
KPPS 032355Z 13009KT 33/11 A3002 RMK A01 T03340114  RH  027%=      5-min Rain = 0
KPPS 040000Z 14007G13KT 33/11 A3002 RMK A01 T03340113  RH  027%=      5-min Rain = 0
KPPS 040005Z 14007KT 34/11 A3002 RMK A01 T03350113  RH  027%=      5-min Rain = 0
KPPS 040010Z 15009KT 34/11 A3003 RMK A01 T03380112  RH  026%=      5-min Rain = 0
KPPS 040015Z 14009KT 34/11 A3003 RMK A01 T03400110  RH  026%=      5-min Rain = 0
KPPS 040020Z 13009G15KT 34/11 A3003 RMK A01 T03410110  RH  025%=      5-min Rain = 0
KPPS 040025Z 13010G15KT 34/11 A3003 RMK A01 T03440109  RH  025%=      5-min Rain = 0
KPPS 040030Z 13009KT 34/11 A3003 RMK A01 T03440108  RH  025%=      5-min Rain = 0
KPPS 040035Z 13009KT 34/11 A3003 RMK A01 T03420108  RH  025%=      5-min Rain = 0
KPPS 040040Z 12012KT 34/11 A3004 RMK A01 T03400107  RH  025%=      5-min Rain = 0
KPPS 040045Z 11010G16KT 34/11 A3004 RMK A01 T03360106  RH  025%=      5-min Rain = 0
KPPS 040050Z 13009KT 34/11 A3004 RMK A01 T03350106  RH  026%=      5-min Rain = 0
KPPS 040055Z 14011KT 34/11 A3004 RMK A01 T03360106  RH  025%=      5-min Rain = 0
KPPS 040100Z 14009KT 33/11 A3004 RMK A01 T03340106  RH  026%=      5-min Rain = 0
KPPS 040105Z 12012KT 33/11 A3004 RMK A01 T03330106  RH  026%=      5-min Rain = 0
KPPS 040110Z 12011KT 33/11 A3004 RMK A01 T03310106  RH  026%=      5-min Rain = 0
KPPS 040115Z 12010KT 33/11 A3004 RMK A01 T03290105  RH  026%=      5-min Rain = 0
KPPS 040120Z 14008KT 33/11 A3004 RMK A01 T03290105  RH  026%=      5-min Rain = 0
KPPS 040125Z 14010KT 33/11 A3004 RMK A01 T03280105  RH  026%=      5-min Rain = 0
KPPS 040130Z 13009KT 33/11 A3004 RMK A01 T03270105  RH  027%=      5-min Rain = 0
KPPS 040135Z 13010KT 33/11 A3004 RMK A01 T03260105  RH  027%=      5-min Rain = 0
KPPS 040140Z 13009KT 33/11 A3004 RMK A01 T03250105  RH  027%=      5-min Rain = 0
KPPS 040145Z 12008KT 32/11 A3004 RMK A01 T03240105  RH  027%=      5-min Rain = 0
KPPS 040150Z 12009KT 32/10 A3004 RMK A01 T03230104  RH  027%=      5-min Rain = 0
KPPS 040155Z 12009KT 32/10 A3004 RMK A01 T03210103  RH  027%=      5-min Rain = 0
KPPS 040200Z 13008KT 32/10 A3004 RMK A01 T03200103  RH  027%=      5-min Rain = 0
KPPS 040205Z 13008KT 32/10 A3005 RMK A01 T03180102  RH  027%=      5-min Rain = 0
KPPS 040210Z 13007KT 32/10 A3005 RMK A01 T03160102  RH  028%=      5-min Rain = 0
KPPS 040215Z 12006KT 31/10 A3005 RMK A01 T03120103  RH  028%=      5-min Rain = 0
KPPS 040220Z 11006KT 31/10 A3005 RMK A01 T03100102  RH  029%=      5-min Rain = 0
KPPS 040225Z 11005KT 31/10 A3005 RMK A01 T03090102  RH  029%=      5-min Rain = 0
KPPS 040230Z 12005KT 31/10 A3006 RMK A01 T03070102  RH  029%=      5-min Rain = 0
KPPS 040235Z 11005KT 30/10 A3006 RMK A01 T03040102  RH  030%=      5-min Rain = 0
KPPS 040240Z 10005KT 30/10 A3006 RMK A01 T03020102  RH  030%=      5-min Rain = 0
KPPS 040245Z 10006KT 30/10 A3006 RMK A01 T02990103  RH  031%=      5-min Rain = 0
KPPS 040250Z 11007KT 30/10 A3006 RMK A01 T02990103  RH  031%=      5-min Rain = 0
KPPS 040255Z 10008KT 30/10 A3006 RMK A01 T03000103  RH  030%=      5-min Rain = 0
KPPS 040300Z 10007KT 30/10 A3007 RMK A01 T02970102  RH  031%=      5-min Rain = 0
KPPS 040305Z 10008KT 29/10 A3007 RMK A01 T02930102  RH  031%=      5-min Rain = 0
KPPS 040310Z 10008KT 29/10 A3007 RMK A01 T02930103  RH  032%=      5-min Rain = 0
KPPS 040315Z 10008KT 29/10 A3007 RMK A01 T02940103  RH  032%=      5-min Rain = 0
KPPS 040320Z 10008KT 29/10 A3007 RMK A01 T02920103  RH  032%=      5-min Rain = 0
KPPS 040325Z 10009KT 29/10 A3007 RMK A01 T02910104  RH  032%=      5-min Rain = 0
KPPS 040330Z 10010KT 29/11 A3008 RMK A01 T02900106  RH  033%=      5-min Rain = 0
KPPS 040335Z 10010G15KT 29/11 A3008 RMK A01 T02900108  RH  033%=      5-min Rain = 0
KPPS 040340Z 09010KT 29/11 A3008 RMK A01 T02900109  RH  034%=      5-min Rain = 0
KPPS 040345Z 10011KT 29/11 A3009 RMK A01 T02900110  RH  034%=      5-min Rain = 0
KPPS 040350Z 10010KT 29/11 A3009 RMK A01 T02910109  RH  034%=      5-min Rain = 0
KPPS 040355Z 10011KT 29/11 A3009 RMK A01 T02910110  RH  034%=      5-min Rain = 0
KPPS 040400Z 11013KT 29/11 A3009 RMK A01 T02920110  RH  034%=      5-min Rain = 0
KPPS 040405Z 11012KT 29/11 A3009 RMK A01 T02910110  RH  034%=      5-min Rain = 0
KPPS 040410Z 11012KT 29/11 A3009 RMK A01 T02900110  RH  034%=      5-min Rain = 0
KPPS 040415Z 11011KT 29/11 A3009 RMK A01 T02890109  RH  034%=      5-min Rain = 0
KPPS 040420Z 11011KT 29/11 A3009 RMK A01 T02880109  RH  034%=      5-min Rain = 0
KPPS 040425Z 11011KT 29/11 A301 RMK A01 T02870109  RH  034%=      5-min Rain = 0
KPPS 040430Z 11011KT 29/11 A301 RMK A01 T02860108  RH  034%=      5-min Rain = 0
KPPS 040435Z 11011KT 28/11 A301 RMK A01 T02840108  RH  035%=      5-min Rain = 0
KPPS 040440Z 11011KT 28/11 A301 RMK A01 T02820108  RH  035%=      5-min Rain = 0
KPPS 040445Z 12011KT 28/11 A301 RMK A01 T02810108  RH  035%=      5-min Rain = 0
KPPS 040450Z 12011KT 28/11 A301 RMK A01 T02810108  RH  035%=      5-min Rain = 0
KPPS 040455Z 11012KT 28/11 A301 RMK A01 T02820108  RH  035%=      5-min Rain = 0

Page generated in 0.0151 seconds.